Time;durP1;ratioP1;P1;durP2;ratioP2;P2;SDS_P1;SDS_P2;PMS_P1;PMS_P2;Temp;Humidity;BMP_temperature;BMP_pressure;BME280_temperature;BME280_humidity;BME280_pressure;Samples;Min_cycle;Max_cycle;Signal;HPM_P1;HPM_P2
2023/09/13 00:00:56;;;;;;;37.88;22.80;;;19.30;99.90;;;;;;5030741;28;20218;-65
2023/09/13 00:03:23;;;;;;;33.60;20.95;;;19.40;99.90;;;;;;5027544;28;20209;-65
2023/09/13 00:05:50;;;;;;;33.28;21.38;;;19.40;99.90;;;;;;5034896;28;20218;-65
2023/09/13 00:08:16;;;;;;;33.17;21.77;;;19.50;99.90;;;;;;5041275;28;20205;-65
2023/09/13 00:10:45;;;;;;;31.83;20.98;;;19.40;99.90;;;;;;5040521;28;20204;-65
2023/09/13 00:13:14;;;;;;;31.13;21.33;;;19.50;99.90;;;;;;5006734;28;20224;-66
2023/09/13 00:15:45;;;;;;;29.80;21.17;;;19.40;99.90;;;;;;5041534;28;20189;-65
2023/09/13 00:18:15;;;;;;;36.00;23.10;;;19.40;99.90;;;;;;5040702;28;20553;-65
2023/09/13 00:20:43;;;;;;;39.00;24.48;;;19.50;99.90;;;;;;5024385;28;20858;-65
2023/09/13 00:23:10;;;;;;;36.78;23.65;;;19.30;99.90;;;;;;5040028;28;21482;-66
2023/09/13 00:25:37;;;;;;;47.38;25.95;;;18.80;99.90;;;;;;5040709;28;20846;-65
2023/09/13 00:28:04;;;;;;;40.28;23.75;;;19.50;99.90;;;;;;5022225;28;20196;-66
2023/09/13 00:30:33;;;;;;;45.65;24.50;;;19.50;99.90;;;;;;5029012;28;20193;-65
2023/09/13 00:32:59;;;;;;;41.15;25.95;;;19.50;99.90;;;;;;5040253;28;20229;-66
2023/09/13 00:35:27;;;;;;;43.58;25.63;;;19.40;99.90;;;;;;5032368;28;20210;-65
2023/09/13 00:37:53;;;;;;;40.00;25.38;;;19.50;99.90;;;;;;5030621;28;20208;-65
2023/09/13 00:40:20;;;;;;;40.53;24.98;;;19.50;99.90;;;;;;5037907;28;20240;-65
2023/09/13 00:42:47;;;;;;;41.65;24.67;;;19.40;99.90;;;;;;5043221;28;20216;-66
2023/09/13 00:45:14;;;;;;;37.30;21.90;;;19.40;99.90;;;;;;4999338;28;20215;-65
2023/09/13 00:47:44;;;;;;;33.35;19.73;;;19.40;99.90;;;;;;5038194;28;20205;-65
2023/09/13 00:50:14;;;;;;;35.70;20.70;;;19.40;99.90;;;;;;5029051;28;20204;-65
2023/09/13 00:52:42;;;;;;;31.88;19.20;;;19.30;99.90;;;;;;5033594;28;20248;-65
2023/09/13 00:55:11;;;;;;;34.70;18.83;;;19.30;99.90;;;;;;5040954;28;20207;-65
2023/09/13 00:57:38;;;;;;;29.20;17.02;;;19.40;99.90;;;;;;5036734;28;20205;-66
2023/09/13 01:00:10;;;;;;;23.88;15.85;;;19.50;99.90;;;;;;5000600;28;20201;-66
2023/09/13 01:02:40;;;;;;;18.98;13.32;;;19.40;99.90;;;;;;5043293;28;20259;-66
2023/09/13 01:05:09;;;;;;;23.15;14.48;;;19.40;99.90;;;;;;5032163;28;20197;-65
2023/09/13 01:07:38;;;;;;;26.02;13.90;;;19.40;99.90;;;;;;5026713;28;20839;-65
2023/09/13 01:10:06;;;;;;;18.63;11.98;;;19.70;99.90;;;;;;5034522;28;20202;-65
2023/09/13 01:12:32;;;;;;;22.20;11.63;;;19.30;99.90;;;;;;5039085;28;20228;-65
2023/09/13 01:15:00;;;;;;;20.35;11.32;;;19.40;99.90;;;;;;5005091;28;20228;-65
2023/09/13 01:17:34;;;;;;;16.42;10.18;;;19.30;99.90;;;;;;5041331;28;20192;-65
2023/09/13 01:20:07;;;;;;;15.10;10.13;;;19.30;99.90;;;;;;5040521;28;20823;-65
2023/09/13 01:23:06;;;;;;;13.38;9.90;;;19.30;99.90;;;;;;5028487;28;21331;-65
2023/09/13 01:25:53;;;;;;;14.20;9.23;;;19.40;99.90;;;;;;5042570;28;20209;-65
2023/09/13 01:28:34;;;;;;;10.93;8.55;;;19.40;99.90;;;;;;5036459;28;20693;-65
2023/09/13 01:31:04;;;;;;;11.27;8.57;;;19.30;99.90;;;;;;5002895;28;20205;-65
2023/09/13 01:33:30;;;;;;;11.23;8.35;;;18.80;99.90;;;;;;5040422;28;20224;-65
2023/09/13 01:35:57;;;;;;;13.32;9.35;;;20.00;99.90;;;;;;5039675;28;20211;-65
2023/09/13 01:38:24;;;;;;;11.60;8.82;;;19.10;99.90;;;;;;5027755;28;20233;-65
2023/09/13 01:40:56;;;;;;;12.55;9.00;;;19.20;99.90;;;;;;5030925;28;20201;-66
2023/09/13 01:43:23;;;;;;;14.88;9.38;;;19.20;99.90;;;;;;5035732;28;20207;-65
2023/09/13 01:45:52;;;;;;;14.73;11.05;;;19.20;99.90;;;;;;5000601;28;20201;-65
2023/09/13 01:48:20;;;;;;;21.30;12.95;;;19.00;99.90;;;;;;5032741;28;20200;-65
2023/09/13 01:50:49;;;;;;;20.75;14.32;;;19.00;99.90;;;;;;5035645;28;20212;-65
2023/09/13 01:53:17;;;;;;;20.88;14.65;;;18.90;99.90;;;;;;5022512;28;20600;-65
2023/09/13 01:55:44;;;;;;;26.30;17.65;;;17.20;99.90;;;;;;5026482;28;20862;-65
2023/09/13 01:58:11;;;;;;;28.27;18.60;;;18.70;99.90;;;;;;5035947;28;20217;-65
2023/09/13 02:00:39;;;;;;;29.90;19.80;;;19.20;99.90;;;;;;5003071;28;20209;-65
2023/09/13 02:03:07;;;;;;;30.23;21.55;;;18.80;99.90;;;;;;5036558;28;20201;-65
2023/09/13 02:05:34;;;;;;;29.83;22.15;;;18.70;99.90;;;;;;5033526;28;20193;-65
2023/09/13 02:08:01;;;;;;;30.83;23.25;;;18.60;99.90;;;;;;5026620;28;20780;-65
2023/09/13 02:10:28;;;;;;;32.65;23.98;;;18.60;99.90;;;;;;5035330;28;20201;-65
2023/09/13 02:12:55;;;;;;;31.52;23.10;;;18.70;99.90;;;;;;5037125;28;20221;-65
2023/09/13 02:15:21;;;;;;;34.33;25.00;;;18.50;99.90;;;;;;5035574;28;20228;-66
2023/09/13 02:17:48;;;;;;;35.35;22.65;;;18.40;99.90;;;;;;4986641;28;20212;-65
2023/09/13 02:20:17;;;;;;;36.80;22.65;;;18.30;99.90;;;;;;5035712;28;20196;-65
2023/09/13 02:22:43;;;;;;;34.35;22.42;;;18.30;99.90;;;;;;5028126;28;20274;-65
2023/09/13 02:25:10;;;;;;;29.77;19.85;;;18.30;99.90;;;;;;5024346;28;23631;-65
2023/09/13 02:27:37;;;;;;;31.88;20.25;;;18.20;99.90;;;;;;5032264;28;21036;-65
2023/09/13 02:30:05;;;;;;;30.83;19.20;;;18.10;99.90;;;;;;5035982;28;20205;-65
2023/09/13 02:32:32;;;;;;;24.92;19.08;;;18.00;99.90;;;;;;5008180;28;20749;-65
2023/09/13 02:34:59;;;;;;;29.05;18.30;;;17.90;99.90;;;;;;5038502;28;20201;-65
2023/09/13 02:37:28;;;;;;;29.85;18.83;;;18.00;99.90;;;;;;5033061;28;20321;-65
2023/09/13 02:39:54;;;;;;;33.08;19.33;;;18.00;99.90;;;;;;5016222;28;20201;-65
2023/09/13 02:42:21;;;;;;;27.50;17.67;;;17.90;99.90;;;;;;5039234;28;20689;-65
2023/09/13 02:44:48;;;;;;;20.75;12.90;;;17.90;99.90;;;;;;5038258;28;20202;-65
2023/09/13 02:47:15;;;;;;;21.95;11.57;;;18.00;99.90;;;;;;5025178;28;20881;-65
2023/09/13 02:49:42;;;;;;;19.00;11.35;;;17.90;99.90;;;;;;5000219;28;20248;-66
2023/09/13 02:52:09;;;;;;;14.15;9.70;;;17.90;99.90;;;;;;5031859;28;20310;-65
2023/09/13 02:54:37;;;;;;;15.90;9.00;;;17.80;99.90;;;;;;5018691;28;20217;-65
2023/09/13 02:57:05;;;;;;;16.95;9.18;;;17.70;99.90;;;;;;5034301;28;20205;-65
2023/09/13 02:59:32;;;;;;;15.00;8.82;;;17.90;99.90;;;;;;5035736;28;20240;-65
2023/09/13 03:01:59;;;;;;;15.95;7.65;;;17.90;99.90;;;;;;5034713;28;20207;-65
2023/09/13 03:04:26;;;;;;;12.57;7.63;;;17.80;99.90;;;;;;5012111;28;20205;-66
2023/09/13 03:06:52;;;;;;;10.45;7.07;;;17.80;99.90;;;;;;5019410;28;20196;-65
2023/09/13 03:09:19;;;;;;;11.85;6.93;;;17.70;99.90;;;;;;5025397;28;20204;-66
2023/09/13 03:11:47;;;;;;;14.00;6.65;;;17.60;99.90;;;;;;5023812;28;20722;-65
2023/09/13 03:14:14;;;;;;;15.23;7.00;;;17.70;99.90;;;;;;5034551;28;20247;-65
2023/09/13 03:16:41;;;;;;;11.73;5.63;;;17.50;99.90;;;;;;5029742;28;20197;-66
2023/09/13 03:19:09;;;;;;;9.88;5.72;;;17.50;99.90;;;;;;5038604;28;20204;-66
2023/09/13 03:21:35;;;;;;;11.45;6.13;;;17.50;99.90;;;;;;5002236;28;20294;-65
2023/09/13 03:24:02;;;;;;;13.57;7.22;;;17.50;99.90;;;;;;5026341;28;20594;-65
2023/09/13 03:26:29;;;;;;;8.32;6.32;;;17.60;99.90;;;;;;5024568;28;20204;-65
2023/09/13 03:28:57;;;;;;;9.70;6.13;;;17.70;99.90;;;;;;5019907;28;20198;-65
2023/09/13 03:31:25;;;;;;;7.63;5.38;;;17.50;99.90;;;;;;5028520;28;20354;-65
2023/09/13 03:33:54;;;;;;;10.38;5.80;;;17.50;99.90;;;;;;5031525;28;20220;-65
2023/09/13 03:36:21;;;;;;;12.52;5.88;;;17.50;99.90;;;;;;4994721;28;20227;-65
2023/09/13 03:38:48;;;;;;;10.48;5.57;;;17.40;99.90;;;;;;5030505;28;20202;-65
2023/09/13 03:41:17;;;;;;;11.68;5.57;;;17.40;99.90;;;;;;5021550;28;20216;-65
2023/09/13 03:43:44;;;;;;;9.50;5.57;;;16.90;99.90;;;;;;5031942;28;20197;-65
2023/09/13 03:46:12;;;;;;;13.80;5.90;;;17.40;99.90;;;;;;5021300;28;20204;-66
2023/09/13 03:48:40;;;;;;;10.50;5.43;;;17.30;99.90;;;;;;5027689;28;20221;-66
2023/09/13 03:51:08;;;;;;;9.80;5.78;;;16.80;99.90;;;;;;4994939;28;20357;-66
2023/09/13 03:53:35;;;;;;;8.45;5.10;;;17.20;99.90;;;;;;5034425;28;20281;-66
2023/09/13 03:56:02;;;;;;;8.73;5.40;;;17.30;99.90;;;;;;5020512;28;20251;-66
2023/09/13 03:58:29;;;;;;;7.43;4.97;;;17.30;99.90;;;;;;5018835;28;20204;-66
2023/09/13 04:00:57;;;;;;;12.02;5.72;;;17.20;99.90;;;;;;5028998;28;20201;-66
2023/09/13 04:03:25;;;;;;;6.07;4.82;;;17.20;99.90;;;;;;5037106;28;20212;-66
2023/09/13 04:05:53;;;;;;;9.93;4.68;;;17.10;99.90;;;;;;5029532;28;20307;-66
2023/09/13 04:08:19;;;;;;;10.88;4.90;;;17.20;99.90;;;;;;5001670;28;20210;-66
2023/09/13 04:10:46;;;;;;;7.35;4.78;;;17.30;99.90;;;;;;5039873;28;20197;-66
2023/09/13 04:13:13;;;;;;;8.63;3.78;;;17.10;99.90;;;;;;5028312;28;20238;-66
2023/09/13 04:15:43;;;;;;;8.38;3.67;;;17.10;99.90;;;;;;5030244;28;20323;-65
2023/09/13 04:18:10;;;;;;;10.50;3.78;;;17.00;99.90;;;;;;5032753;28;20197;-66
2023/09/13 04:20:38;;;;;;;10.85;3.45;;;16.90;99.90;;;;;;5041999;28;20776;-66
2023/09/13 04:23:05;;;;;;;8.32;3.38;;;15.80;99.90;;;;;;5005807;28;20213;-65
2023/09/13 04:25:32;;;;;;;11.63;3.63;;;16.80;99.90;;;;;;5039000;28;20201;-66
2023/09/13 04:27:58;;;;;;;5.05;3.15;;;16.90;99.90;;;;;;5023318;28;20209;-66
2023/09/13 04:30:25;;;;;;;5.72;3.60;;;16.90;99.90;;;;;;5029524;28;20232;-66
2023/09/13 04:32:52;;;;;;;10.30;3.78;;;16.80;99.90;;;;;;5025881;28;20682;-66
2023/09/13 04:35:19;;;;;;;8.32;4.07;;;16.90;99.90;;;;;;5029519;28;20739;-66
2023/09/13 04:37:47;;;;;;;6.93;3.70;;;17.00;99.90;;;;;;5012643;28;21247;-66
2023/09/13 04:40:14;;;;;;;10.23;4.03;;;16.70;99.90;;;;;;5025980;28;20208;-66
2023/09/13 04:42:43;;;;;;;6.55;3.90;;;15.40;99.90;;;;;;5038359;28;20566;-66
2023/09/13 04:45:10;;;;;;;8.35;4.07;;;16.70;99.90;;;;;;5025009;28;20613;-66
2023/09/13 04:47:38;;;;;;;7.35;4.35;;;16.80;99.90;;;;;;5039796;28;20673;-66
2023/09/13 04:50:07;;;;;;;4.72;3.55;;;16.60;99.90;;;;;;5029547;28;20225;-66
2023/09/13 04:52:34;;;;;;;5.20;3.78;;;16.70;99.90;;;;;;5036669;28;20221;-66
2023/09/13 04:55:02;;;;;;;14.32;4.63;;;16.60;99.90;;;;;;4996702;28;20232;-66
2023/09/13 04:57:29;;;;;;;6.47;4.18;;;16.60;99.90;;;;;;5033851;28;20535;-66
2023/09/13 04:59:55;;;;;;;5.60;3.88;;;16.80;99.90;;;;;;5027339;28;20229;-67
2023/09/13 05:02:22;;;;;;;12.82;3.90;;;16.60;99.90;;;;;;5032928;28;20208;-67
2023/09/13 05:04:49;;;;;;;6.38;3.85;;;14.50;99.90;;;;;;5024653;28;20230;-67
2023/09/13 05:07:16;;;;;;;6.15;4.20;;;16.50;99.90;;;;;;5024983;28;21202;-66
2023/09/13 05:09:43;;;;;;;7.20;4.40;;;14.50;99.90;;;;;;5022752;28;20220;-67
2023/09/13 05:12:11;;;;;;;10.25;4.32;;;16.30;99.90;;;;;;5015904;28;20227;-67
2023/09/13 05:14:42;;;;;;;11.25;4.03;;;16.40;99.90;;;;;;5030554;28;20243;-67
2023/09/13 05:17:09;;;;;;;9.02;4.25;;;16.30;99.90;;;;;;5005347;28;20225;-66
2023/09/13 05:19:35;;;;;;;8.15;4.38;;;15.80;99.90;;;;;;5031561;28;20252;-67
2023/09/13 05:22:02;;;;;;;6.72;3.63;;;15.50;99.90;;;;;;5024453;28;20201;-67
2023/09/13 05:24:29;;;;;;;6.70;3.63;;;16.20;99.90;;;;;;5035506;28;20322;-67
2023/09/13 05:26:57;;;;;;;8.98;2.80;;;16.20;99.90;;;;;;5001814;28;20453;-67
2023/09/13 05:29:25;;;;;;;5.75;3.05;;;16.30;99.90;;;;;;5040019;28;20193;-67
2023/09/13 05:31:52;;;;;;;4.93;2.00;;;;;;;;;;5028782;28;20697;-67
2023/09/13 05:34:19;;;;;;;5.43;2.10;;;16.10;99.90;;;;;;5030381;28;20239;-67
2023/09/13 05:36:45;;;;;;;9.77;2.17;;;16.10;99.90;;;;;;5035832;28;20207;-67
2023/09/13 05:39:12;;;;;;;5.30;2.40;;;16.00;99.90;;;;;;5036812;28;20321;-67
2023/09/13 05:41:39;;;;;;;4.10;1.90;;;16.00;99.90;;;;;;5006012;28;20752;-67
2023/09/13 05:44:09;;;;;;;3.25;1.75;;;15.90;99.90;;;;;;5039399;28;20511;-67
2023/09/13 05:46:37;;;;;;;7.60;2.50;;;16.00;99.90;;;;;;5038649;28;20197;-67
2023/09/13 05:49:04;;;;;;;4.38;2.42;;;16.10;99.90;;;;;;5023119;28;20444;-67
2023/09/13 05:51:31;;;;;;;7.22;2.13;;;15.90;99.90;;;;;;5045934;28;20201;-67
2023/09/13 05:53:58;;;;;;;7.22;2.25;;;15.90;99.90;;;;;;5038141;28;20428;-67
2023/09/13 05:56:25;;;;;;;2.50;1.77;;;15.80;99.90;;;;;;5000644;28;20212;-67
2023/09/13 05:58:52;;;;;;;6.75;2.38;;;15.80;99.90;;;;;;5035581;28;20202;-67
2023/09/13 06:01:18;;;;;;;5.28;2.30;;;15.80;99.90;;;;;;5040986;28;20205;-67
2023/09/13 06:03:47;;;;;;;4.38;1.60;;;15.80;99.90;;;;;;5037222;28;20197;-67
2023/09/13 06:06:13;;;;;;;6.55;2.10;;;15.70;99.90;;;;;;5036970;28;20201;-67
2023/09/13 06:08:40;;;;;;;4.55;2.47;;;15.70;99.90;;;;;;5042262;28;20197;-67
2023/09/13 06:11:07;;;;;;;2.88;1.90;;;15.70;99.90;;;;;;5002588;28;20406;-67
2023/09/13 06:13:34;;;;;;;4.35;2.22;;;15.70;99.90;;;;;;5040162;28;20217;-67
2023/09/13 06:16:01;;;;;;;4.70;2.78;;;15.70;99.90;;;;;;5032671;28;20228;-67
2023/09/13 06:18:27;;;;;;;8.75;2.08;;;15.60;99.90;;;;;;5036440;28;21116;-67
2023/09/13 06:20:56;;;;;;;4.30;1.83;;;15.60;99.90;;;;;;5028154;28;20203;-67
2023/09/13 06:23:36;;;;;;;3.15;1.60;;;15.10;99.90;;;;;;5040549;28;20193;-66
2023/09/13 06:26:04;;;;;;;6.43;1.67;;;15.60;99.90;;;;;;5038227;28;20390;-67
2023/09/13 06:28:31;;;;;;;4.25;1.95;;;15.50;99.90;;;;;;4987175;28;20686;-67
2023/09/13 06:30:59;;;;;;;9.02;2.25;;;15.50;99.90;;;;;;5036384;28;20197;-67
2023/09/13 06:33:27;;;;;;;4.60;2.13;;;15.50;99.90;;;;;;5037340;28;20197;-66
2023/09/13 06:35:57;;;;;;;7.40;1.77;;;15.40;99.90;;;;;;5020296;28;20617;-67
2023/09/13 06:38:24;;;;;;;5.63;1.67;;;15.40;99.90;;;;;;5039030;28;20204;-67
2023/09/13 06:40:51;;;;;;;3.28;1.85;;;15.40;99.90;;;;;;5035527;28;20806;-67
2023/09/13 06:43:19;;;;;;;5.15;1.80;;;15.70;99.90;;;;;;5003819;28;20519;-67
2023/09/13 06:45:47;;;;;;;3.70;1.10;;;15.30;99.90;;;;;;5039570;28;20205;-66
2023/09/13 06:48:14;;;;;;;2.35;1.38;;;15.40;99.90;;;;;;5034136;28;20380;-67
2023/09/13 06:50:41;;;;;;;3.15;1.40;;;15.40;99.90;;;;;;5015673;28;20855;-67
2023/09/13 06:53:09;;;;;;;2.13;1.50;;;15.40;99.90;;;;;;5039146;28;21124;-67
2023/09/13 06:55:36;;;;;;;8.80;2.00;;;15.40;99.90;;;;;;5040806;28;20224;-66
2023/09/13 06:58:07;;;;;;;3.83;2.10;;;15.50;99.90;;;;;;5036168;28;20197;-67
2023/09/13 07:00:34;;;;;;;4.70;2.20;;;15.50;99.90;;;;;;5003926;28;20201;-67
2023/09/13 07:03:04;;;;;;;3.35;1.55;;;15.60;99.90;;;;;;5029159;28;20212;-67
2023/09/13 07:05:31;;;;;;;2.47;1.48;;;15.60;99.90;;;;;;5029257;28;20218;-67
2023/09/13 07:07:58;;;;;;;5.18;1.45;;;15.70;99.90;;;;;;5026895;28;21158;-67
2023/09/13 07:10:26;;;;;;;4.22;1.50;;;15.60;99.90;;;;;;5042975;28;20213;-67
2023/09/13 07:12:52;;;;;;;7.00;1.80;;;15.70;99.90;;;;;;5041567;28;20654;-67
2023/09/13 07:15:19;;;;;;;4.40;1.77;;;15.70;99.90;;;;;;5001041;28;20276;-67
2023/09/13 07:17:46;;;;;;;4.35;1.67;;;15.80;99.90;;;;;;5035804;28;20312;-67
2023/09/13 07:20:13;;;;;;;5.40;1.70;;;;;;;;;;5026770;28;20436;-67
2023/09/13 07:22:40;;;;;;;3.55;1.60;;;15.60;99.90;;;;;;5027198;28;20733;-66
2023/09/13 07:25:08;;;;;;;5.82;2.00;;;15.70;99.90;;;;;;5033998;28;20458;-67
2023/09/13 07:27:36;;;;;;;4.18;1.65;;;15.60;99.90;;;;;;5040392;28;20577;-66
2023/09/13 07:30:08;;;;;;;5.10;1.98;;;15.50;99.90;;;;;;4994027;28;20209;-66
2023/09/13 07:32:35;;;;;;;3.28;1.75;;;15.40;99.90;;;;;;5038233;28;20205;-66
2023/09/13 07:35:02;;;;;;;2.72;1.63;;;15.60;99.90;;;;;;5034421;28;20583;-66
2023/09/13 07:37:29;;;;;;;3.15;1.27;;;15.10;99.90;;;;;;5025743;28;20379;-66
2023/09/13 07:39:57;;;;;;;3.28;1.38;;;15.30;99.90;;;;;;5028798;28;20555;-66
2023/09/13 07:42:24;;;;;;;7.63;1.55;;;13.90;99.90;;;;;;5033664;28;20208;-66
2023/09/13 07:44:52;;;;;;;5.75;1.38;;;15.30;99.90;;;;;;5000572;28;20799;-67
2023/09/13 07:47:19;;;;;;;2.28;1.35;;;;;;;;;;5038768;28;20681;-66
2023/09/13 07:49:46;;;;;;;3.38;1.58;;;15.30;99.90;;;;;;5032395;28;20346;-66
2023/09/13 07:52:14;;;;;;;4.90;1.73;;;15.30;99.90;;;;;;5037254;28;20497;-66
2023/09/13 07:54:40;;;;;;;7.22;1.77;;;15.30;99.90;;;;;;5032283;28;21012;-66
2023/09/13 07:57:07;;;;;;;8.02;1.60;;;15.40;99.90;;;;;;5036849;28;20395;-67
2023/09/13 07:59:34;;;;;;;3.75;1.70;;;15.40;99.90;;;;;;5027512;28;20307;-66
2023/09/13 08:02:03;;;;;;;2.72;1.33;;;15.40;99.90;;;;;;4988566;28;20208;-66
2023/09/13 08:04:30;;;;;;;5.07;1.63;;;15.50;99.90;;;;;;5023283;28;20621;-66
2023/09/13 08:06:57;;;;;;;6.80;1.58;;;15.50;99.90;;;;;;5036161;28;20198;-66
2023/09/13 08:09:23;;;;;;;3.30;1.58;;;15.70;99.90;;;;;;5025757;28;21303;-66
2023/09/13 08:11:50;;;;;;;7.22;1.40;;;15.70;99.90;;;;;;5037328;28;20201;-66
2023/09/13 08:14:17;;;;;;;8.25;2.03;;;15.80;99.90;;;;;;5028007;28;20230;-66
2023/09/13 08:16:44;;;;;;;8.63;2.10;;;15.80;99.90;;;;;;4997940;28;20543;-66
2023/09/13 08:19:13;;;;;;;6.90;1.65;;;15.90;99.90;;;;;;5033180;28;20203;-66
2023/09/13 08:21:41;;;;;;;5.93;1.90;;;15.90;99.90;;;;;;5038485;28;20197;-66
2023/09/13 08:24:08;;;;;;;5.90;1.73;;;15.90;99.90;;;;;;5040796;28;20678;-66
2023/09/13 08:26:35;;;;;;;6.15;1.83;;;15.80;99.90;;;;;;5032915;28;20201;-66
2023/09/13 08:29:03;;;;;;;5.65;1.63;;;15.80;99.90;;;;;;5039647;28;20196;-66
2023/09/13 08:31:30;;;;;;;7.88;1.65;;;15.80;99.90;;;;;;5005253;28;20543;-66
2023/09/13 08:33:57;;;;;;;6.68;1.30;;;15.80;99.90;;;;;;5043531;28;20204;-66
2023/09/13 08:36:25;;;;;;;4.93;1.95;;;15.80;99.90;;;;;;5035461;28;20871;-66
2023/09/13 08:38:52;;;;;;;2.53;1.10;;;15.90;99.90;;;;;;5040339;28;20559;-66
2023/09/13 08:41:18;;;;;;;5.57;1.38;;;15.90;99.90;;;;;;5028951;28;20690;-66
2023/09/13 08:43:46;;;;;;;4.05;1.55;;;15.90;99.90;;;;;;5047934;28;20217;-66
2023/09/13 08:46:15;;;;;;;9.00;1.67;;;15.90;99.90;;;;;;5035794;28;20832;-66
2023/09/13 08:48:43;;;;;;;3.55;1.33;;;15.70;99.90;;;;;;4998313;28;20204;-66
2023/09/13 08:51:11;;;;;;;3.83;1.58;;;16.00;99.90;;;;;;5039618;28;20203;-66
2023/09/13 08:53:41;;;;;;;5.32;1.38;;;16.00;99.90;;;;;;5042142;28;20205;-66
2023/09/13 08:56:09;;;;;;;4.55;1.08;;;15.90;99.90;;;;;;5035731;28;20237;-66
2023/09/13 08:58:36;;;;;;;5.75;1.20;;;15.90;99.90;;;;;;5030598;28;20231;-66
2023/09/13 09:01:09;;;;;;;5.28;1.65;;;15.90;99.90;;;;;;5044873;28;20193;-66
2023/09/13 09:03:36;;;;;;;7.85;1.23;;;16.00;99.90;;;;;;5003652;28;20231;-66
2023/09/13 09:06:05;;;;;;;4.47;1.42;;;16.00;99.90;;;;;;5040591;28;20232;-66
2023/09/13 09:08:36;;;;;;;5.50;1.83;;;16.00;99.90;;;;;;5032331;28;20223;-66
2023/09/13 09:11:05;;;;;;;1.92;1.17;;;16.00;99.90;;;;;;5039141;28;20200;-66
2023/09/13 09:13:33;;;;;;;3.95;1.42;;;16.00;99.90;;;;;;5043094;28;20201;-66
2023/09/13 09:16:02;;;;;;;3.83;1.35;;;16.00;99.90;;;;;;5039166;28;20677;-66
2023/09/13 09:18:31;;;;;;;1.48;1.05;;;15.80;99.90;;;;;;5005279;28;20831;-66
2023/09/13 09:20:58;;;;;;;2.88;1.50;;;15.90;99.90;;;;;;5041748;28;20200;-66
2023/09/13 09:23:29;;;;;;;6.75;1.67;;;15.70;99.90;;;;;;5036645;28;20227;-66
2023/09/13 09:25:56;;;;;;;4.70;1.50;;;15.70;99.90;;;;;;5038046;28;20709;-66
2023/09/13 09:28:24;;;;;;;3.45;1.60;;;15.50;99.90;;;;;;5037529;28;20228;-66
2023/09/13 09:30:52;;;;;;;6.63;1.75;;;15.50;99.90;;;;;;5041624;28;20232;-66
2023/09/13 09:33:27;;;;;;;3.15;1.50;;;15.40;99.90;;;;;;5034354;28;20197;-67
2023/09/13 09:35:55;;;;;;;2.60;1.70;;;15.20;99.90;;;;;;5006561;28;20227;-65
2023/09/13 09:38:22;;;;;;;4.28;1.83;;;15.10;99.90;;;;;;5039030;28;20296;-65
2023/09/13 09:40:49;;;;;;;2.63;1.60;;;14.90;99.90;;;;;;5038468;28;21464;-65
2023/09/13 09:43:16;;;;;;;5.85;1.60;;;14.90;99.90;;;;;;5037954;28;20401;-66
2023/09/13 09:45:44;;;;;;;4.57;1.75;;;14.90;99.90;;;;;;5040690;28;20689;-66
2023/09/13 09:48:13;;;;;;;3.20;1.50;;;14.90;99.90;;;;;;5034634;28;20564;-66
2023/09/13 09:50:45;;;;;;;4.50;1.58;;;14.90;99.90;;;;;;5001095;28;20221;-66
2023/09/13 09:53:13;;;;;;;4.10;1.88;;;15.00;99.90;;;;;;5039130;28;20546;-66
2023/09/13 09:55:40;;;;;;;2.50;1.85;;;14.90;99.90;;;;;;5043526;28;20646;-66
2023/09/13 09:58:08;;;;;;;4.53;1.60;;;15.00;99.90;;;;;;5028375;28;20197;-66
2023/09/13 10:00:49;;;;;;;2.53;1.52;;;15.00;99.90;;;;;;5023929;28;20546;-66
2023/09/13 10:03:18;;;;;;;4.45;2.10;;;15.00;99.90;;;;;;5031054;28;20831;-65
2023/09/13 10:05:56;;;;;;;2.13;1.63;;;15.00;99.90;;;;;;4969620;28;20228;-66
2023/09/13 10:08:40;;;;;;;3.97;1.90;;;15.00;99.90;;;;;;5034751;28;20204;-66
2023/09/13 10:11:08;;;;;;;5.15;2.03;;;14.90;99.90;;;;;;5035912;28;20283;-66
2023/09/13 10:13:36;;;;;;;3.42;1.65;;;14.90;99.90;;;;;;5033830;28;20548;-66
2023/09/13 10:16:06;;;;;;;4.63;1.80;;;14.90;99.90;;;;;;5038995;28;20762;-66
2023/09/13 10:18:37;;;;;;;2.75;1.75;;;14.90;99.90;;;;;;5035252;28;20577;-66
2023/09/13 10:21:06;;;;;;;3.28;1.90;;;14.90;99.90;;;;;;4994221;28;20212;-66
2023/09/13 10:23:41;;;;;;;5.43;1.80;;;14.90;99.90;;;;;;5033761;28;20196;-66
2023/09/13 10:26:10;;;;;;;2.97;1.65;;;14.90;99.90;;;;;;5037613;28;20784;-66
2023/09/13 10:28:39;;;;;;;3.05;1.67;;;15.00;99.90;;;;;;5031635;28;20250;-66
2023/09/13 10:31:15;;;;;;;1.70;1.38;;;15.00;99.90;;;;;;5045547;28;20196;-66
2023/09/13 10:33:45;;;;;;;5.00;2.38;;;15.00;99.90;;;;;;5031826;28;20589;-66
2023/09/13 10:36:22;;;;;;;5.13;1.38;;;15.10;99.90;;;;;;4994291;28;20228;-66
2023/09/13 10:38:55;;;;;;;7.25;1.98;;;15.10;99.90;;;;;;5037627;28;20201;-66
2023/09/13 10:41:25;;;;;;;3.00;1.52;;;15.20;99.90;;;;;;5039404;28;20200;-66
2023/09/13 10:43:52;;;;;;;3.20;1.40;;;15.20;99.90;;;;;;5038367;28;20236;-66
2023/09/13 10:46:22;;;;;;;1.98;1.35;;;15.10;99.90;;;;;;5037271;28;20201;-66
2023/09/13 10:48:50;;;;;;;1.70;1.35;;;15.00;99.90;;;;;;5038931;28;20597;-66
2023/09/13 10:51:18;;;;;;;2.85;1.35;;;15.10;99.90;;;;;;4991483;28;20228;-66
2023/09/13 10:53:47;;;;;;;2.58;1.38;;;15.10;99.90;;;;;;5036520;28;20667;-66
2023/09/13 10:56:16;;;;;;;2.30;1.50;;;15.00;99.90;;;;;;5039489;28;20232;-66
2023/09/13 10:58:45;;;;;;;5.45;1.38;;;15.00;99.90;;;;;;5031378;28;20814;-66
2023/09/13 11:01:14;;;;;;;1.25;0.93;;;15.00;99.90;;;;;;5037091;28;20628;-66
2023/09/13 11:03:43;;;;;;;2.95;1.50;;;15.20;99.90;;;;;;5038707;28;20196;-66
2023/09/13 11:06:11;;;;;;;2.75;1.48;;;15.20;99.90;;;;;;5029166;28;20197;-66
2023/09/13 11:08:38;;;;;;;2.47;1.67;;;15.20;99.90;;;;;;5001123;28;20204;-66
2023/09/13 11:11:09;;;;;;;3.03;1.70;;;15.20;99.90;;;;;;5039276;28;20203;-66
2023/09/13 11:13:36;;;;;;;2.65;1.48;;;15.40;99.90;;;;;;5036616;28;20197;-66
2023/09/13 11:16:04;;;;;;;2.03;1.23;;;15.50;99.90;;;;;;5032158;28;20243;-66
2023/09/13 11:18:32;;;;;;;2.92;1.77;;;15.50;99.90;;;;;;5036736;28;20546;-66
2023/09/13 11:21:01;;;;;;;2.97;1.45;;;15.50;99.90;;;;;;5026194;28;20203;-66
2023/09/13 11:23:43;;;;;;;2.95;1.73;;;15.70;99.90;;;;;;5003312;28;21039;-66
2023/09/13 11:26:13;;;;;;;2.92;1.40;;;15.70;99.90;;;;;;5033837;28;20224;-65
2023/09/13 11:28:48;;;;;;;6.38;1.63;;;15.90;99.90;;;;;;5035773;28;20193;-66
2023/09/13 11:31:21;;;;;;;5.13;2.00;;;16.00;99.90;;;;;;5041515;28;20425;-66
2023/09/13 11:33:55;;;;;;;5.53;1.67;;;16.10;99.90;;;;;;5035762;28;20221;-66
2023/09/13 11:36:25;;;;;;;2.67;1.38;;;16.10;99.90;;;;;;5025331;28;20690;-66
2023/09/13 11:38:53;;;;;;;3.28;1.55;;;16.10;99.90;;;;;;5015292;28;20192;-66
2023/09/13 11:41:21;;;;;;;3.15;1.40;;;16.10;99.90;;;;;;5035557;28;20202;-65
2023/09/13 11:43:50;;;;;;;3.45;1.67;;;16.10;99.90;;;;;;5039339;28;20666;-66
2023/09/13 11:46:18;;;;;;;4.32;1.55;;;16.10;99.90;;;;;;5030748;28;20812;-66
2023/09/13 11:48:49;;;;;;;2.05;1.40;;;16.10;99.90;;;;;;5034736;28;20209;-66
2023/09/13 11:51:17;;;;;;;2.15;1.42;;;16.10;99.90;;;;;;5039467;28;20206;-65
2023/09/13 11:53:49;;;;;;;3.85;1.90;;;16.10;99.90;;;;;;5026819;28;20311;-66
2023/09/13 11:56:33;;;;;;;3.10;1.42;;;16.20;99.90;;;;;;4999391;28;20232;-66
2023/09/13 11:59:00;;;;;;;7.03;1.75;;;16.40;99.90;;;;;;5042938;28;20587;-66
2023/09/13 12:01:29;;;;;;;3.83;1.70;;;16.40;99.90;;;;;;5039914;28;20201;-66
2023/09/13 12:03:57;;;;;;;5.18;1.75;;;16.50;99.90;;;;;;5045184;28;20201;-66
2023/09/13 12:06:25;;;;;;;4.45;1.80;;;16.50;99.90;;;;;;5037923;28;21036;-65
2023/09/13 12:08:55;;;;;;;2.60;1.73;;;16.60;99.90;;;;;;5033198;28;20250;-65
2023/09/13 12:11:23;;;;;;;7.47;1.92;;;16.70;99.90;;;;;;5008308;28;20213;-66
2023/09/13 12:13:52;;;;;;;2.40;1.23;;;16.80;99.90;;;;;;5046909;28;20659;-65
2023/09/13 12:16:20;;;;;;;4.57;1.88;;;16.90;99.90;;;;;;5034500;28;20228;-66
2023/09/13 12:18:46;;;;;;;2.80;1.52;;;16.90;99.90;;;;;;5032097;28;20205;-66
2023/09/13 12:21:14;;;;;;;3.33;1.63;;;16.90;99.90;;;;;;5043832;28;20196;-65
2023/09/13 12:23:43;;;;;;;3.95;1.50;;;16.90;99.90;;;;;;5037336;28;20204;-66
2023/09/13 12:26:14;;;;;;;4.85;3.58;;;17.00;99.90;;;;;;5008732;28;20216;-66
2023/09/13 12:28:42;;;;;;;2.42;1.58;;;17.00;99.90;;;;;;5047845;28;20658;-66
2023/09/13 12:31:11;;;;;;;4.10;1.73;;;17.00;99.90;;;;;;5042722;28;20228;-65
2023/09/13 12:33:40;;;;;;;2.30;1.40;;;17.00;99.90;;;;;;5043633;28;20771;-66
2023/09/13 12:36:07;;;;;;;2.92;1.75;;;17.00;99.90;;;;;;5043823;28;20220;-65
2023/09/13 12:38:45;;;;;;;5.80;1.95;;;17.00;99.90;;;;;;5031146;28;20719;-65
2023/09/13 12:41:15;;;;;;;3.00;1.75;;;17.00;99.90;;;;;;4995842;28;20301;-65
2023/09/13 12:43:43;;;;;;;5.55;1.60;;;17.10;99.90;;;;;;5035394;28;20197;-66
2023/09/13 12:46:14;;;;;;;5.50;1.88;;;17.00;99.90;;;;;;5031719;28;20204;-65
2023/09/13 12:48:41;;;;;;;2.92;1.55;;;17.00;99.90;;;;;;5037417;28;20197;-65